Time;durP1;ratioP1;P1;durP2;ratioP2;P2;SDS_P1;SDS_P2;PMS_P1;PMS_P2;Temp;Humidity;BMP_temperature;BMP_pressure;BME280_temperature;BME280_humidity;BME280_pressure;Samples;Min_cycle;Max_cycle;Signal;HPM_P1;HPM_P2
2022/02/21 00:01:27;;;;;;;;;;;;;;;9.22;56.73;96733.41;4925706;29;20372;-79
2022/02/21 00:03:57;;;;;;;;;;;;;;;9.37;55.76;96724.66;4929061;29;20027;-77
2022/02/21 00:06:25;;;;;;;;;;;;;;;9.43;55.75;96712.50;4925226;29;19934;-78
2022/02/21 00:08:53;;;;;;;;;;;;;;;9.48;56.32;96723.13;4924693;29;20017;-79
2022/02/21 00:11:21;;;;;;;;;;;;;;;9.47;56.15;96707.97;4929363;29;19934;-82
2022/02/21 00:13:51;;;;;;;;;;;;;;;9.42;55.88;96706.25;4926157;29;19933;-79
2022/02/21 00:16:19;;;;;;;;;;;;;;;9.49;56.32;96683.25;4923690;29;19942;-79
2022/02/21 00:18:46;;;;;;;;;;;;;;;9.29;56.71;96680.25;4929690;29;19982;-77
2022/02/21 00:21:15;;;;;;;;;;;;;;;9.25;56.47;96665.75;4924458;29;19949;-78
2022/02/21 00:23:43;;;;;;;;;;;;;;;9.45;56.31;96653.31;4923423;29;19935;-79
2022/02/21 00:26:11;;;;;;;;;;;;;;;9.37;56.94;96648.75;4926167;29;19937;-79
2022/02/21 00:28:39;;;;;;;;;;;;;;;9.45;56.30;96647.88;4926356;29;20381;-79
2022/02/21 00:34:06;;;;;;;;;;;;;;;9.31;56.73;96637.31;4927361;29;19989;-80
2022/02/21 00:36:34;;;;;;;;;;;;;;;9.50;56.73;96633.34;4924480;29;19955;-80
2022/02/21 00:39:03;;;;;;;;;;;;;;;9.37;57.03;96621.66;4927042;29;20053;-77
2022/02/21 00:41:31;;;;;;;;;;;;;;;9.59;56.01;96617.78;4925922;29;19935;-80
2022/02/21 00:43:59;;;;;;;;;;;;;;;9.59;56.58;96599.59;4926836;29;19978;-79
2022/02/21 00:46:28;;;;;;;;;;;;;;;9.44;56.60;96595.59;4916526;29;19927;-79
2022/02/21 00:48:57;;;;;;;;;;;;;;;9.45;57.00;96586.31;4926564;29;20313;-81
2022/02/21 00:51:25;;;;;;;;;;;;;;;9.51;56.88;96577.97;4928088;29;19935;-79
2022/02/21 00:53:53;;;;;;;;;;;;;;;9.48;57.23;96567.78;4928027;29;19927;-79
2022/02/21 00:56:21;;;;;;;;;;;;;;;9.25;57.63;96576.34;4922556;29;19938;-78
2022/02/21 00:58:49;;;;;;;;;;;;;;;9.40;56.92;96567.56;4925890;29;20401;-78
2022/02/21 01:01:16;;;;;;;;;;;;;;;9.52;57.15;96549.72;4929480;29;20469;-79
2022/02/21 01:03:46;;;;;;;;;;;;;;;9.40;57.49;96553.22;4926124;29;19927;-77
2022/02/21 01:06:17;;;;;;;;;;;;;;;9.61;56.00;96551.22;4925054;29;19978;-77
2022/02/21 01:08:45;;;;;;;;;;;;;;;9.44;56.71;96527.81;4927493;29;19933;-78
2022/02/21 01:11:13;;;;;;;;;;;;;;;9.65;55.42;96545.91;4926415;29;19942;-77
2022/02/21 01:13:41;;;;;;;;;;;;;;;9.38;56.35;96526.47;4924379;29;19973;-77
2022/02/21 01:16:09;;;;;;;;;;;;;;;9.33;56.98;96534.03;4925485;29;20393;-77
2022/02/21 01:18:37;;;;;;;;;;;;;;;9.36;56.15;96507.03;4924643;29;19994;-78
2022/02/21 01:21:08;;;;;;;;;;;;;;;9.53;55.42;96506.00;4929323;29;19979;-77
2022/02/21 01:23:40;;;;;;;;;;;;;;;9.65;55.18;96497.13;4926628;29;20382;-80
2022/02/21 01:26:07;;;;;;;;;;;;;;;9.70;54.99;96488.75;4924408;29;20279;-78
2022/02/21 01:28:35;;;;;;;;;;;;;;;9.66;55.68;96472.34;4927834;29;19927;-81
2022/02/21 01:31:03;;;;;;;;;;;;;;;9.76;55.08;96478.47;4927200;29;19933;-80
2022/02/21 01:34:01;;;;;;;;;;;;;;;9.58;55.44;96464.34;4925644;29;19942;-79
2022/02/21 01:36:31;;;;;;;;;;;;;;;9.68;55.57;96491.78;4924150;29;20103;-79
2022/02/21 01:38:59;;;;;;;;;;;;;;;9.52;55.79;96466.47;4925769;29;19934;-81
2022/02/21 01:41:27;;;;;;;;;;;;;;;9.68;55.27;96458.44;4924752;29;19927;-79
2022/02/21 01:44:02;;;;;;;;;;;;;;;9.75;55.16;96450.56;4923557;29;19934;-81
2022/02/21 01:46:30;;;;;;;;;;;;;;;9.73;54.65;96441.16;4926936;29;19927;-79
2022/02/21 01:48:58;;;;;;;;;;;;;;;9.68;54.87;96431.34;4922981;29;19938;-79
2022/02/21 01:51:26;;;;;;;;;;;;;;;9.69;55.36;96438.34;4924621;29;19927;-77
2022/02/21 01:53:56;;;;;;;;;;;;;;;9.68;55.12;96421.28;4924131;29;19926;-78
2022/02/21 01:56:24;;;;;;;;;;;;;;;9.73;55.16;96411.34;4922593;29;19926;-79
2022/02/21 01:58:52;;;;;;;;;;;;;;;9.67;55.06;96406.13;4913743;29;19986;-77
2022/02/21 02:01:20;;;;;;;;;;;;;;;9.73;55.03;96389.63;4922981;29;19927;-78
2022/02/21 02:03:48;;;;;;;;;;;;;;;9.68;55.10;96377.09;4925846;29;19928;-77
2022/02/21 02:06:17;;;;;;;;;;;;;;;9.67;55.43;96380.94;4924459;29;20490;-78
2022/02/21 02:08:45;;;;;;;;;;;;;;;9.65;55.23;96384.00;4923003;29;19927;-80
2022/02/21 02:11:14;;;;;;;;;;;;;;;9.51;55.71;96380.06;4925590;29;19930;-77
2022/02/21 02:13:44;;;;;;;;;;;;;;;9.50;56.08;96371.16;4920698;29;20313;-77
2022/02/21 02:16:12;;;;;;;;;;;;;;;9.61;55.57;96366.06;4923100;29;19946;-80
2022/02/21 02:18:40;;;;;;;;;;;;;;;9.67;55.70;96364.69;4923461;29;19942;-78
2022/02/21 02:21:08;;;;;;;;;;;;;;;9.77;55.05;96366.13;4912843;29;19934;-78
2022/02/21 02:23:38;;;;;;;;;;;;;;;9.66;55.76;96352.25;4920555;29;19957;-81
2022/02/21 02:26:08;;;;;;;;;;;;;;;9.70;55.65;96320.63;4921287;29;20038;-77
2022/02/21 02:28:37;;;;;;;;;;;;;;;9.69;55.94;96338.00;4923667;29;19937;-78
2022/02/21 02:31:07;;;;;;;;;;;;;;;9.56;55.87;96328.34;4918510;29;19927;-79
2022/02/21 02:33:37;;;;;;;;;;;;;;;9.63;55.85;96317.69;4922816;29;19927;-77
2022/02/21 02:36:08;;;;;;;;;;;;;;;9.65;55.33;96301.88;4908417;29;19926;-79
2022/02/21 02:38:38;;;;;;;;;;;;;;;9.71;55.17;96290.44;4919978;29;19938;-80
2022/02/21 02:41:10;;;;;;;;;;;;;;;9.65;55.70;96286.41;4922625;29;20360;-78
2022/02/21 02:43:38;;;;;;;;;;;;;;;9.63;55.76;96294.06;4923395;29;19927;-77
2022/02/21 02:46:09;;;;;;;;;;;;;;;9.67;55.68;96278.69;4924203;29;19941;-79
2022/02/21 02:48:37;;;;;;;;;;;;;;;9.65;55.83;96280.19;4924999;29;19931;-80
2022/02/21 02:51:07;;;;;;;;;;;;;;;9.71;55.71;96278.81;4922251;29;19982;-79
2022/02/21 02:53:35;;;;;;;;;;;;;;;9.78;55.57;96279.00;4922572;29;19927;-79
2022/02/21 02:56:08;;;;;;;;;;;;;;;9.64;56.43;96256.91;4925113;29;19927;-81
2022/02/21 02:58:35;;;;;;;;;;;;;;;9.51;56.83;96263.50;4924550;29;20015;-79
2022/02/21 03:01:03;;;;;;;;;;;;;;;9.63;56.73;96247.19;4922381;29;20317;-78
2022/02/21 03:03:33;;;;;;;;;;;;;;;9.55;57.00;96237.28;4925023;29;20015;-79
2022/02/21 03:06:01;;;;;;;;;;;;;;;9.53;57.47;96231.41;4922916;29;19930;-79
2022/02/21 03:08:29;;;;;;;;;;;;;;;9.61;57.49;96225.84;4923552;29;20374;-79
2022/02/21 03:10:57;;;;;;;;;;;;;;;9.51;57.50;96231.75;4926967;29;20009;-79
2022/02/21 03:13:26;;;;;;;;;;;;;;;9.50;57.52;96216.63;4925439;29;19931;-77
2022/02/21 03:15:57;;;;;;;;;;;;;;;9.53;58.04;96193.47;4927678;29;19983;-78
2022/02/21 03:18:26;;;;;;;;;;;;;;;9.44;57.82;96199.84;4926512;29;19938;-77
2022/02/21 03:20:54;;;;;;;;;;;;;;;9.34;58.09;96197.63;4925417;29;19935;-78
2022/02/21 03:23:23;;;;;;;;;;;;;;;9.44;58.24;96191.69;4928457;29;19935;-79
2022/02/21 03:25:51;;;;;;;;;;;;;;;9.36;58.90;96200.75;4927903;29;19930;-79
2022/02/21 03:28:18;;;;;;;;;;;;;;;9.36;58.35;96205.38;4927989;29;19958;-78
2022/02/21 03:30:48;;;;;;;;;;;;;;;9.38;58.86;96189.59;4928480;29;19935;-78
2022/02/21 03:33:16;;;;;;;;;;;;;;;9.37;58.77;96171.72;4929688;29;19938;-77
2022/02/21 03:35:44;;;;;;;;;;;;;;;9.49;59.05;96160.06;4925871;29;19976;-80
2022/02/21 03:38:12;;;;;;;;;;;;;;;9.51;59.11;96155.06;4927184;29;20199;-78
2022/02/21 03:40:39;;;;;;;;;;;;;;;9.53;59.10;96166.34;4924871;29;19934;-78
2022/02/21 03:43:08;;;;;;;;;;;;;;;9.35;59.51;96161.25;4914335;29;19928;-81
2022/02/21 03:45:35;;;;;;;;;;;;;;;9.45;59.28;96158.03;4912453;29;19930;-79
2022/02/21 03:50:57;;;;;;;;;;;;;;;9.43;59.48;96141.34;4930142;29;19978;-80
2022/02/21 03:53:25;;;;;;;;;;;;;;;9.20;60.02;96137.59;4910962;29;20021;-78
2022/02/21 03:55:55;;;;;;;;;;;;;;;9.35;59.59;96142.28;4930803;29;19983;-79
2022/02/21 03:58:23;;;;;;;;;;;;;;;9.34;59.57;96249.09;4934611;29;19926;-78
2022/02/21 04:00:51;;;;;;;;;;;;;;;8.61;60.06;96379.94;4933414;29;19974;-81
2022/02/21 04:03:20;;;;;;;;;;;;;;;5.37;66.30;96372.41;4903467;29;19966;-78
2022/02/21 04:05:49;;;;;;;;;;;;;;;4.12;69.53;96406.72;4934344;29;19974;-79
2022/02/21 04:08:22;;;;;;;;;;;;;;;3.70;71.07;96411.47;4934993;29;19935;-79
2022/02/21 04:10:50;;;;;;;;;;;;;;;3.47;72.66;96429.44;4930101;29;19927;-77
2022/02/21 04:13:18;;;;;;;;;;;;;;;3.37;73.74;96424.28;4937399;29;20296;-77
2022/02/21 04:15:54;;;;;;;;;;;;;;;3.29;73.46;96419.63;4937450;29;20389;-80
2022/02/21 04:18:24;;;;;;;;;;;;;;;3.23;73.46;96437.72;4933025;29;19937;-79
2022/02/21 04:20:52;;;;;;;;;;;;;;;3.19;73.63;96442.09;4932227;29;19931;-79
2022/02/21 04:23:20;;;;;;;;;;;;;;;3.15;73.59;96439.22;4934270;29;19935;-79
2022/02/21 04:25:48;;;;;;;;;;;;;;;3.17;73.75;96448.84;4934998;29;19931;-78
2022/02/21 04:28:18;;;;;;;;;;;;;;;3.23;73.88;96439.59;4933424;29;19977;-79
2022/02/21 04:30:46;;;;;;;;;;;;;;;3.31;73.58;96438.91;4932704;29;19931;-80
2022/02/21 04:33:17;;;;;;;;;;;;;;;3.25;72.71;96419.44;4932950;29;20389;-78
2022/02/21 04:35:46;;;;;;;;;;;;;;;3.42;72.82;96440.28;4935407;29;19962;-80
2022/02/21 04:38:15;;;;;;;;;;;;;;;3.48;72.69;96422.19;4928379;29;19927;-82
2022/02/21 04:40:43;;;;;;;;;;;;;;;3.47;71.32;96424.06;4932574;29;20342;-78
2022/02/21 04:43:11;;;;;;;;;;;;;;;3.66;72.00;96424.69;4932661;29;19935;-80
2022/02/21 04:45:40;;;;;;;;;;;;;;;3.45;71.89;96431.63;4934611;29;19946;-80
2022/02/21 04:48:13;;;;;;;;;;;;;;;3.67;71.83;96442.44;4933815;29;19958;-80
2022/02/21 04:50:46;;;;;;;;;;;;;;;3.72;70.91;96428.06;4930371;29;19926;-79
2022/02/21 04:53:14;;;;;;;;;;;;;;;3.88;70.69;96417.78;4927710;29;19935;-77
2022/02/21 04:55:43;;;;;;;;;;;;;;;3.83;69.91;96413.31;4929781;29;19931;-80
2022/02/21 04:58:11;;;;;;;;;;;;;;;3.83;70.11;96405.25;4930917;29;19927;-79
2022/02/21 05:00:45;;;;;;;;;;;;;;;3.96;68.72;96417.06;4930040;29;19927;-80
2022/02/21 05:03:13;;;;;;;;;;;;;;;4.07;68.61;96437.22;4932791;29;19938;-77
2022/02/21 05:05:41;;;;;;;;;;;;;;;4.11;66.64;96434.72;4931801;29;19931;-78
2022/02/21 05:08:10;;;;;;;;;;;;;;;4.25;66.75;96423.88;4929155;29;19931;-78
2022/02/21 05:10:38;;;;;;;;;;;;;;;4.24;64.53;96443.81;4913690;29;19934;-81
2022/02/21 05:13:06;;;;;;;;;;;;;;;4.36;65.59;96409.09;4926022;29;19942;-78
2022/02/21 05:15:34;;;;;;;;;;;;;;;4.28;64.75;96416.00;4927528;29;19989;-78
2022/02/21 05:18:03;;;;;;;;;;;;;;;4.39;64.05;96419.22;4930113;29;20347;-79
2022/02/21 05:20:31;;;;;;;;;;;;;;;4.44;63.69;96421.78;4926437;29;19982;-80
2022/02/21 05:22:59;;;;;;;;;;;;;;;4.40;63.55;96420.81;4927103;29;19962;-76
2022/02/21 05:25:28;;;;;;;;;;;;;;;4.46;63.23;96414.19;4926913;29;19973;-79
2022/02/21 05:27:55;;;;;;;;;;;;;;;4.47;62.43;96431.91;4926736;29;19927;-81
2022/02/21 05:30:24;;;;;;;;;;;;;;;4.52;61.54;96425.63;4922507;29;19934;-80
2022/02/21 05:32:52;;;;;;;;;;;;;;;4.71;60.48;96424.31;4927987;29;20398;-81
2022/02/21 05:35:20;;;;;;;;;;;;;;;4.58;60.03;96433.28;4923522;29;19942;-78
2022/02/21 05:37:48;;;;;;;;;;;;;;;4.66;61.45;96440.56;4924435;29;19926;-78
2022/02/21 05:40:16;;;;;;;;;;;;;;;4.57;60.11;96437.03;4926565;29;19977;-78
2022/02/21 05:42:48;;;;;;;;;;;;;;;4.65;61.79;96441.69;4928659;29;20023;-79
2022/02/21 05:45:16;;;;;;;;;;;;;;;4.57;61.68;96455.88;4913136;29;19982;-79
2022/02/21 05:47:44;;;;;;;;;;;;;;;4.84;61.22;96454.09;4932298;29;19986;-80
2022/02/21 05:50:12;;;;;;;;;;;;;;;4.82;60.88;96462.50;4927167;29;20044;-80
2022/02/21 05:52:44;;;;;;;;;;;;;;;4.65;61.49;96482.03;4927626;29;19935;-83
2022/02/21 05:55:12;;;;;;;;;;;;;;;4.68;62.29;96470.66;4925224;29;19930;-80
2022/02/21 05:57:40;;;;;;;;;;;;;;;4.76;61.72;96465.63;4920266;29;19974;-90
2022/02/21 06:00:13;;;;;;;;;;;;;;;4.47;64.60;96485.72;4928402;29;19962;-80
2022/02/21 06:02:41;;;;;;;;;;;;;;;4.33;64.32;96498.44;4912272;29;19965;-76
2022/02/21 06:05:10;;;;;;;;;;;;;;;4.31;66.42;96532.88;4914801;29;20373;-76
2022/02/21 06:07:39;;;;;;;;;;;;;;;4.25;68.62;96521.44;4930583;29;20026;-76
2022/02/21 06:10:07;;;;;;;;;;;;;;;4.31;68.99;96539.06;4924390;29;19974;-79
2022/02/21 06:12:36;;;;;;;;;;;;;;;4.17;69.90;96547.16;4922993;29;20032;-78
2022/02/21 06:15:04;;;;;;;;;;;;;;;4.11;70.00;96556.44;4930326;29;19935;-79
2022/02/21 06:17:34;;;;;;;;;;;;;;;4.24;70.54;96572.84;4930612;29;19915;-91
2022/02/21 06:20:01;;;;;;;;;;;;;;;3.99;70.93;96576.88;4898994;29;19934;-83
2022/02/21 06:22:51;;;;;;;;;;;;;;;4.01;70.94;96572.78;4925784;29;20345;-90
2022/02/21 06:25:19;;;;;;;;;;;;;;;3.89;70.67;96577.91;4936217;29;20390;-80
2022/02/21 06:27:47;;;;;;;;;;;;;;;4.01;71.11;96577.38;4926785;29;19927;-78
2022/02/21 06:30:14;;;;;;;;;;;;;;;4.07;70.80;96571.59;4928048;29;20337;-78
2022/02/21 06:32:43;;;;;;;;;;;;;;;4.32;70.18;96562.16;4920438;29;19934;-78
2022/02/21 06:35:11;;;;;;;;;;;;;;;4.22;69.39;96545.47;4926370;29;20421;-77
2022/02/21 06:37:43;;;;;;;;;;;;;;;4.28;67.45;96547.75;4922523;29;19933;-78
2022/02/21 06:40:11;;;;;;;;;;;;;;;4.19;67.39;96534.22;4927022;29;19927;-78
2022/02/21 06:42:39;;;;;;;;;;;;;;;4.33;67.63;96533.38;4924259;29;19931;-78
2022/02/21 06:45:08;;;;;;;;;;;;;;;4.25;66.22;96550.22;4926800;29;19970;-78
2022/02/21 06:47:36;;;;;;;;;;;;;;;4.32;65.24;96551.41;4913827;29;19978;-79
2022/02/21 06:50:07;;;;;;;;;;;;;;;4.42;65.32;96542.28;4928211;29;20804;-77
2022/02/21 06:52:39;;;;;;;;;;;;;;;4.43;64.75;96560.03;4927062;29;20044;-77
2022/02/21 06:55:08;;;;;;;;;;;;;;;4.47;64.35;96577.97;4925559;29;19941;-78
2022/02/21 06:57:35;;;;;;;;;;;;;;;4.56;64.13;96596.84;4929210;29;20030;-76
2022/02/21 07:00:03;;;;;;;;;;;;;;;4.73;63.56;96586.19;4924579;29;20433;-77
2022/02/21 07:02:31;;;;;;;;;;;;;;;4.66;63.62;96591.22;4909660;29;19933;-79
2022/02/21 07:04:59;;;;;;;;;;;;;;;4.83;63.22;96590.56;4928047;29;19997;-79
2022/02/21 07:07:29;;;;;;;;;;;;;;;4.76;63.75;96589.41;4924108;29;19927;-78
2022/02/21 07:09:57;;;;;;;;;;;;;;;4.80;64.65;96606.53;4925246;29;19926;-78
2022/02/21 07:12:25;;;;;;;;;;;;;;;4.86;64.55;96597.22;4926039;29;19950;-75
2022/02/21 07:14:53;;;;;;;;;;;;;;;5.01;63.70;96615.69;4927116;29;20390;-76
2022/02/21 07:17:20;;;;;;;;;;;;;;;4.96;63.50;96622.00;4923108;29;19990;-78
2022/02/21 07:19:55;;;;;;;;;;;;;;;5.10;63.68;96632.69;4915401;29;19927;-76
2022/02/21 07:22:25;;;;;;;;;;;;;;;5.16;63.05;96631.44;4920519;29;19926;-76
2022/02/21 07:24:54;;;;;;;;;;;;;;;5.17;63.26;96625.00;4925439;29;19975;-76
2022/02/21 07:27:23;;;;;;;;;;;;;;;5.32;62.89;96623.78;4923183;29;19989;-78
2022/02/21 07:29:51;;;;;;;;;;;;;;;5.41;63.88;96630.03;4922808;29;19981;-79
2022/02/21 07:32:19;;;;;;;;;;;;;;;5.05;62.93;96643.56;4923499;29;20034;-78
2022/02/21 07:34:47;;;;;;;;;;;;;;;5.00;61.92;96633.72;4926737;29;20780;-76
2022/02/21 07:37:15;;;;;;;;;;;;;;;4.83;62.17;96632.81;4909741;29;20009;-77
2022/02/21 07:39:43;;;;;;;;;;;;;;;4.73;62.05;96626.56;4928813;29;19930;-76
2022/02/21 07:42:35;;;;;;;;;;;;;;;4.70;60.82;96647.91;4926769;29;19927;-77
2022/02/21 07:45:08;;;;;;;;;;;;;;;4.84;59.94;96654.03;4929178;29;19927;-78
2022/02/21 07:47:42;;;;;;;;;;;;;;;4.99;57.72;96647.50;4925751;29;20578;-78
2022/02/21 07:50:10;;;;;;;;;;;;;;;4.90;54.51;96635.88;4922681;29;19981;-79
2022/02/21 07:52:40;;;;;;;;;;;;;;;4.78;53.79;96646.38;4925523;29;19927;-79
2022/02/21 07:55:08;;;;;;;;;;;;;;;4.62;51.15;96648.63;4926439;29;19935;-77
2022/02/21 07:57:39;;;;;;;;;;;;;;;4.71;50.22;96663.75;4929087;29;19941;-77
2022/02/21 08:00:09;;;;;;;;;;;;;;;4.86;50.65;96676.06;4924462;29;20298;-80
2022/02/21 08:02:41;;;;;;;;;;;;;;;4.90;50.58;96671.66;4925728;29;20594;-76
2022/02/21 08:05:09;;;;;;;;;;;;;;;4.73;50.06;96653.47;4930901;29;19933;-77
2022/02/21 08:07:37;;;;;;;;;;;;;;;4.68;49.74;96677.78;4929926;29;20349;-80
2022/02/21 08:10:08;;;;;;;;;;;;;;;4.64;49.12;96698.34;4928599;29;20405;-77
2022/02/21 08:13:01;;;;;;;;;;;;;;;4.57;48.53;96697.94;4927910;29;20294;-80
2022/02/21 08:15:34;;;;;;;;;;;;;;;4.46;48.81;96720.78;4929398;29;19927;-79
2022/02/21 08:18:05;;;;;;;;;;;;;;;4.38;47.83;96708.03;4929796;29;19931;-75
2022/02/21 08:20:33;;;;;;;;;;;;;;;4.26;49.38;96745.38;4930172;29;20377;-76
2022/02/21 08:23:02;;;;;;;;;;;;;;;4.41;48.65;96737.81;4914044;29;19935;-77
2022/02/21 08:25:30;;;;;;;;;;;;;;;4.45;48.55;96754.16;4928635;29;19930;-78
2022/02/21 08:28:00;;;;;;;;;;;;;;;4.53;49.26;96753.47;4914273;29;19982;-79
2022/02/21 08:30:27;;;;;;;;;;;;;;;4.46;49.47;96758.44;4929131;29;19935;-78
2022/02/21 08:32:56;;;;;;;;;;;;;;;4.63;49.49;96763.97;4926970;29;19927;-79
2022/02/21 08:35:25;;;;;;;;;;;;;;;4.66;49.02;96774.16;4925850;29;19934;-76
2022/02/21 08:37:53;;;;;;;;;;;;;;;4.61;49.53;96774.25;4926589;29;20053;-78
2022/02/21 08:40:22;;;;;;;;;;;;;;;4.71;50.08;96762.50;4928280;29;19930;-76
2022/02/21 08:42:50;;;;;;;;;;;;;;;4.72;48.75;96767.56;4925599;29;19934;-78
2022/02/21 08:45:18;;;;;;;;;;;;;;;4.91;50.24;96778.22;4923802;29;19935;-79
2022/02/21 08:47:46;;;;;;;;;;;;;;;4.80;48.76;96767.97;4927568;29;19927;-78
2022/02/21 08:50:16;;;;;;;;;;;;;;;5.05;49.85;96807.78;4911830;29;20306;-77
2022/02/21 08:52:44;;;;;;;;;;;;;;;5.06;49.11;96784.34;4915608;29;19927;-76
2022/02/21 08:55:16;;;;;;;;;;;;;;;5.13;48.37;96793.63;4922324;29;19934;-81
2022/02/21 08:57:47;;;;;;;;;;;;;;;5.06;48.60;96793.25;4911491;29;19974;-81
2022/02/21 09:00:16;;;;;;;;;;;;;;;5.22;47.99;96797.19;4907991;29;19935;-78
2022/02/21 09:02:45;;;;;;;;;;;;;;;5.07;47.84;96802.91;4905431;29;20473;-78
2022/02/21 09:05:32;;;;;;;;;;;;;;;5.11;49.25;96828.09;4911601;29;19955;-80
2022/02/21 09:08:00;;;;;;;;;;;;;;;5.12;49.51;96823.53;4908809;29;19983;-77
2022/02/21 09:10:30;;;;;;;;;;;;;;;5.04;49.20;96816.97;4905952;29;19991;-82
2022/02/21 09:13:22;;;;;;;;;;;;;;;5.24;49.92;96818.41;4910386;29;19935;-79
2022/02/21 09:15:51;;;;;;;;;;;;;;;5.25;49.21;96831.56;4903551;29;19939;-79
2022/02/21 09:18:19;;;;;;;;;;;;;;;5.26;48.29;96818.91;4911221;29;19950;-78
2022/02/21 09:20:50;;;;;;;;;;;;;;;5.47;49.21;96841.59;4909926;29;20207;-78
2022/02/21 09:23:18;;;;;;;;;;;;;;;5.31;49.52;96826.06;4908157;29;19974;-80
2022/02/21 09:25:46;;;;;;;;;;;;;;;5.42;48.77;96839.00;4908545;29;19943;-76
2022/02/21 09:28:14;;;;;;;;;;;;;;;5.32;48.89;96830.34;4910287;29;21038;-82
2022/02/21 09:30:42;;;;;;;;;;;;;;;5.05;49.83;96840.09;4911980;29;19927;-81
2022/02/21 09:33:10;;;;;;;;;;;;;;;5.14;49.57;96843.66;4908995;29;19936;-79
2022/02/21 09:35:38;;;;;;;;;;;;;;;5.08;50.40;96827.94;4904471;29;19931;-80
2022/02/21 09:38:07;;;;;;;;;;;;;;;5.23;50.11;96839.16;4909241;29;20426;-81
2022/02/21 09:40:35;;;;;;;;;;;;;;;5.53;50.30;96834.97;4904578;29;20033;-78
2022/02/21 09:43:03;;;;;;;;;;;;;;;5.66;49.10;96848.72;4908545;29;19966;-79
2022/02/21 09:45:32;;;;;;;;;;;;;;;5.72;49.17;96842.09;4908236;29;20394;-79
2022/02/21 09:47:59;;;;;;;;;;;;;;;6.03;49.15;96847.59;4907041;29;19983;-79
2022/02/21 09:50:41;;;;;;;;;;;;;;;6.03;47.62;96864.56;4911354;29;20390;-78
2022/02/21 09:53:10;;;;;;;;;;;;;;;5.69;47.91;96846.19;4908211;29;20022;-79
2022/02/21 09:55:39;;;;;;;;;;;;;;;5.86;47.88;96859.03;4916492;29;20392;-80
2022/02/21 09:58:07;;;;;;;;;;;;;;;5.50;48.04;96878.69;4926162;29;20000;-81
2022/02/21 10:00:35;;;;;;;;;;;;;;;5.62;49.12;96867.38;4926894;29;19982;-79
2022/02/21 10:03:42;;;;;;;;;;;;;;;5.60;50.21;96860.72;4915516;29;20050;-78
2022/02/21 10:06:17;;;;;;;;;;;;;;;5.71;49.85;96856.69;4924339;29;20255;-79
2022/02/21 10:08:51;;;;;;;;;;;;;;;5.97;48.87;96859.59;4924894;29;20415;-78
2022/02/21 10:11:33;;;;;;;;;;;;;;;5.61;49.17;96878.47;4928218;29;19927;-78
2022/02/21 10:14:02;;;;;;;;;;;;;;;5.56;50.20;96860.53;4925210;29;19977;-79
2022/02/21 10:16:42;;;;;;;;;;;;;;;5.93;49.12;96851.31;4928207;29;19934;-78
2022/02/21 10:19:13;;;;;;;;;;;;;;;6.10;48.98;96853.34;4926731;29;19927;-80
2022/02/21 10:21:59;;;;;;;;;;;;;;;6.15;48.13;96864.00;4928072;29;19927;-78
2022/02/21 10:24:29;;;;;;;;;;;;;;;6.01;47.68;96861.34;4926858;29;19934;-78
2022/02/21 10:26:57;;;;;;;;;;;;;;;6.06;47.48;96873.13;4930415;29;19934;-77
2022/02/21 10:29:25;;;;;;;;;;;;;;;5.95;47.91;96877.97;4927857;29;19968;-77
2022/02/21 10:31:55;;;;;;;;;;;;;;;6.02;48.15;96883.75;4927553;29;19938;-76
2022/02/21 10:34:33;;;;;;;;;;;;;;;6.23;48.19;96901.03;4910016;29;20080;-79
2022/02/21 10:37:01;;;;;;;;;;;;;;;6.11;48.06;96867.59;4928455;29;19927;-77
2022/02/21 10:39:31;;;;;;;;;;;;;;;6.24;47.46;96866.75;4926250;29;19938;-77
2022/02/21 10:42:02;;;;;;;;;;;;;;;5.96;48.26;96863.38;4915593;29;19974;-77
2022/02/21 10:44:31;;;;;;;;;;;;;;;6.01;48.92;96882.13;4927850;29;20409;-76
2022/02/21 10:47:00;;;;;;;;;;;;;;;6.11;49.01;96884.59;4927665;29;19934;-77
2022/02/21 10:49:48;;;;;;;;;;;;;;;6.04;48.36;96876.94;4925502;29;19959;-75
2022/02/21 10:52:17;;;;;;;;;;;;;;;6.04;48.80;96886.94;4925316;29;19945;-77
2022/02/21 10:54:47;;;;;;;;;;;;;;;6.13;48.83;96878.91;4927563;29;19927;-77
2022/02/21 10:57:17;;;;;;;;;;;;;;;6.17;49.21;96880.66;4925082;29;19934;-75
2022/02/21 10:59:45;;;;;;;;;;;;;;;6.34;49.13;96873.78;4924510;29;19931;-75
2022/02/21 11:02:15;;;;;;;;;;;;;;;6.63;49.45;96874.09;4925289;29;19982;-81
2022/02/21 11:04:46;;;;;;;;;;;;;;;6.99;50.01;96867.72;4928453;29;19982;-84
2022/02/21 11:07:14;;;;;;;;;;;;;;;6.79;49.88;96882.56;4926230;29;19927;-80
2022/02/21 11:09:42;;;;;;;;;;;;;;;6.75;50.57;96873.50;4925953;29;19934;-77
2022/02/21 11:12:11;;;;;;;;;;;;;;;6.57;51.36;96886.13;4926208;29;19926;-80
2022/02/21 11:14:40;;;;;;;;;;;;;;;6.54;51.80;96884.84;4924310;29;19935;-80
2022/02/21 11:17:10;;;;;;;;;;;;;;;6.70;52.29;96877.13;4926199;29;20408;-79
2022/02/21 11:19:42;;;;;;;;;;;;;;;6.92;51.42;96888.97;4923571;29;19931;-80
2022/02/21 11:22:09;;;;;;;;;;;;;;;6.92;52.10;96886.25;4923790;29;20013;-86
2022/02/21 11:24:38;;;;;;;;;;;;;;;6.68;52.34;96883.97;4922755;29;19973;-85
2022/02/21 11:27:09;;;;;;;;;;;;;;;6.29;53.47;96877.41;4925090;29;19934;-87
2022/02/21 11:29:42;;;;;;;;;;;;;;;6.47;53.47;96875.59;4925194;29;20385;-84
2022/02/21 11:32:17;;;;;;;;;;;;;;;6.53;51.85;96882.44;4927861;29;19931;-87
2022/02/21 11:34:46;;;;;;;;;;;;;;;6.50;52.24;96888.47;4928604;29;19935;-91
2022/02/21 11:37:21;;;;;;;;;;;;;;;6.36;52.19;96880.47;4926954;29;19928;-81
2022/02/21 11:42:49;;;;;;;;;;;;;;;6.07;51.68;96863.94;4927372;29;20369;-91
2022/02/21 11:45:26;;;;;;;;;;;;;;;6.48;51.21;96880.69;4925933;29;19933;-90
2022/02/21 11:47:57;;;;;;;;;;;;;;;6.63;51.58;96876.78;4930202;29;19982;-90
2022/02/21 11:50:33;;;;;;;;;;;;;;;6.55;51.64;96896.41;4927491;29;19965;-88
2022/02/21 11:53:21;;;;;;;;;;;;;;;6.41;50.44;96901.91;4927464;29;19966;-89
2022/02/21 11:55:51;;;;;;;;;;;;;;;6.45;48.14;96885.91;4927983;29;20374;-90
2022/02/21 11:58:36;;;;;;;;;;;;;;;6.63;49.11;96882.19;4931732;29;20021;-91
2022/02/21 12:01:20;;;;;;;;;;;;;;;6.53;48.74;96895.94;4927328;29;19927;-88
2022/02/21 12:04:07;;;;;;;;;;;;;;;6.41;49.33;96906.53;4929128;29;19934;-90
2022/02/21 12:06:35;;;;;;;;;;;;;;;6.45;47.62;96900.19;4929644;29;19931;-91
2022/02/21 12:09:32;;;;;;;;;;;;;;;6.10;48.75;96896.47;4931874;29;19958;-90
2022/02/21 12:12:15;;;;;;;;;;;;;;;6.07;48.88;96907.06;4934344;29;20014;-91
2022/02/21 12:14:58;;;;;;;;;;;;;;;6.14;48.37;96892.06;4928574;29;19926;-92
2022/02/21 12:20:37;;;;;;;;;;;;;;;6.06;49.12;96889.31;4929673;29;20029;-90
2022/02/21 12:23:11;;;;;;;;;;;;;;;6.31;48.20;96896.78;4932282;29;20014;-91
2022/02/21 12:25:40;;;;;;;;;;;;;;;6.31;49.04;96904.88;4933191;29;19927;-90
2022/02/21 12:28:12;;;;;;;;;;;;;;;6.07;48.76;96907.06;4934337;29;20336;-92
2022/02/21 12:30:40;;;;;;;;;;;;;;;5.84;48.47;96903.53;4929304;29;19927;-91
2022/02/21 12:33:10;;;;;;;;;;;;;;;6.02;48.61;96889.13;4931430;29;19933;-89
2022/02/21 12:35:48;;;;;;;;;;;;;;;6.14;47.71;96912.84;4933617;29;19928;-91
2022/02/21 12:38:17;;;;;;;;;;;;;;;6.14;46.10;96897.47;4929852;29;19931;-90
2022/02/21 12:43:50;;;;;;;;;;;;;;;6.18;45.43;96905.72;4934003;29;19933;-92
2022/02/21 12:46:19;;;;;;;;;;;;;;;6.23;46.40;96906.41;4930494;29;19969;-90
2022/02/21 12:48:48;;;;;;;;;;;;;;;6.22;46.27;96904.81;4929771;29;20029;-89
2022/02/21 12:51:20;;;;;;;;;;;;;;;6.06;46.26;96884.72;4932801;29;19962;-91
2022/02/21 12:53:49;;;;;;;;;;;;;;;6.33;45.70;96872.19;4929342;29;19934;-91
2022/02/21 12:56:17;;;;;;;;;;;;;;;6.55;46.24;96864.88;4926990;29;19954;-90
2022/02/21 12:58:49;;;;;;;;;;;;;;;6.66;46.24;96865.38;4931356;29;19935;-92
2022/02/21 13:01:18;;;;;;;;;;;;;;;6.62;46.67;96861.72;4929531;29;19949;-87
2022/02/21 13:03:54;;;;;;;;;;;;;;;6.52;46.54;96860.06;4926919;29;20359;-80
2022/02/21 13:06:22;;;;;;;;;;;;;;;6.43;46.89;96853.03;4930297;29;19938;-78
2022/02/21 13:08:50;;;;;;;;;;;;;;;6.48;45.97;96847.50;4927053;29;19927;-80
2022/02/21 13:11:23;;;;;;;;;;;;;;;6.56;45.94;96841.38;4925527;29;19933;-86
2022/02/21 13:14:15;;;;;;;;;;;;;;;6.49;45.77;96839.09;4923904;29;20410;-86
2022/02/21 13:16:53;;;;;;;;;;;;;;;6.44;46.62;96843.84;4928894;29;19974;-85
2022/02/21 13:19:27;;;;;;;;;;;;;;;6.55;46.76;96834.34;4928234;29;20158;-86
2022/02/21 13:21:55;;;;;;;;;;;;;;;6.62;46.17;96833.94;4926754;29;20346;-87
2022/02/21 13:24:23;;;;;;;;;;;;;;;6.40;46.73;96832.88;4928222;29;20014;-86
2022/02/21 13:26:52;;;;;;;;;;;;;;;6.56;46.87;96822.47;4926888;29;19963;-87
2022/02/21 13:29:43;;;;;;;;;;;;;;;6.59;47.13;96816.44;4924133;29;19927;-85